sensor_id;sensor_type;location;lat;lon;timestamp;pressure;altitude;pressure_sealevel;temperature;humidity
75026;BME280;63591;50.080;8.286;2022-10-31T09:14:19;100125.38;;;20.54;74.06
75026;BME280;63591;50.080;8.286;2022-10-31T09:16:44;100122.78;;;21.08;74.79
75026;BME280;63591;50.080;8.286;2022-10-31T09:19:09;100119.44;;;21.46;73.69
75026;BME280;63591;50.080;8.286;2022-10-31T09:21:34;100127.38;;;21.87;72.66
75026;BME280;63591;50.080;8.286;2022-10-31T09:24:55;100120.94;;;22.02;68.62
75026;BME280;63591;50.080;8.286;2022-10-31T09:27:20;100121.28;;;22.12;68.74
75026;BME280;63591;50.080;8.286;2022-10-31T09:29:45;100121.06;;;22.20;68.26
75026;BME280;63591;50.080;8.286;2022-10-31T09:32:10;100121.34;;;22.38;68.41
75026;BME280;63591;50.080;8.286;2022-10-31T09:34:35;100127.88;;;22.49;67.89
75026;BME280;63591;50.080;8.286;2022-10-31T09:37:01;100132.63;;;22.46;66.99
75026;BME280;63591;50.080;8.286;2022-10-31T09:39:26;100135.28;;;22.46;67.83
75026;BME280;63591;50.080;8.286;2022-10-31T09:44:51;100125.59;;;22.52;66.95
75026;BME280;63591;50.080;8.286;2022-10-31T09:47:33;100129.31;;;22.51;68.39
75026;BME280;63591;50.080;8.286;2022-10-31T09:58:27;100113.88;;;22.53;nan
75026;BME280;63591;50.080;8.286;2022-10-31T10:00:56;100114.94;;;22.45;nan
75026;BME280;63591;50.080;8.286;2022-10-31T10:04:59;100113.19;;;22.32;66.92
75026;BME280;63591;50.080;8.286;2022-10-31T10:28:27;100112.25;;;19.90;64.10
75026;BME280;63591;50.080;8.286;2022-10-31T10:31:02;100105.31;;;19.53;65.47
75026;BME280;63591;50.080;8.286;2022-10-31T10:33:33;100100.19;;;19.23;66.62
75026;BME280;63591;50.080;8.286;2022-10-31T10:36:08;100105.75;;;19.00;67.80
75026;BME280;63591;50.080;8.286;2022-10-31T10:38:51;100111.28;;;18.76;68.01
75026;BME280;63591;50.080;8.286;2022-10-31T10:41:23;100112.34;;;18.60;68.91
75026;BME280;63591;50.080;8.286;2022-10-31T10:43:50;100107.72;;;18.47;69.29
75026;BME280;63591;50.080;8.286;2022-10-31T10:51:59;100087.47;;;18.09;70.74
75026;BME280;63591;50.080;8.286;2022-10-31T10:59:50;100091.53;;;17.90;72.22
75026;BME280;63591;50.080;8.286;2022-10-31T11:02:18;100081.63;;;17.84;72.48
75026;BME280;63591;50.080;8.286;2022-10-31T11:04:47;100083.84;;;17.80;72.73
75026;BME280;63591;50.080;8.286;2022-10-31T11:07:14;100076.25;;;17.77;73.13
75026;BME280;63591;50.080;8.286;2022-10-31T11:09:40;100071.31;;;17.74;73.39
75026;BME280;63591;50.080;8.286;2022-10-31T11:12:20;100060.06;;;17.72;73.62
75026;BME280;63591;50.080;8.286;2022-10-31T11:14:50;100045.31;;;17.69;73.72
75026;BME280;63591;50.080;8.286;2022-10-31T11:17:25;100056.13;;;17.67;73.62
75026;BME280;63591;50.080;8.286;2022-10-31T11:22:44;100045.88;;;17.64;73.98
75026;BME280;63591;50.080;8.286;2022-10-31T11:27:45;100045.88;;;17.64;74.60
75026;BME280;63591;50.080;8.286;2022-10-31T11:30:13;100047.72;;;17.64;74.55
75026;BME280;63591;50.080;8.286;2022-10-31T11:32:48;100033.81;;;17.62;74.70
75026;BME280;63591;50.080;8.286;2022-10-31T11:35:16;100023.00;;;17.63;74.79
75026;BME280;63591;50.080;8.286;2022-10-31T11:37:44;100023.00;;;17.63;75.04
75026;BME280;63591;50.080;8.286;2022-10-31T11:40:25;100022.34;;;17.61;74.88
75026;BME280;63591;50.080;8.286;2022-10-31T11:42:53;100014.03;;;17.64;75.22
75026;BME280;63591;50.080;8.286;2022-10-31T11:47:49;100018.53;;;17.64;75.36
75026;BME280;63591;50.080;8.286;2022-10-31T11:50:24;100014.22;;;17.63;75.27
75026;BME280;63591;50.080;8.286;2022-10-31T11:52:51;100012.38;;;17.63;75.27
75026;BME280;63591;50.080;8.286;2022-10-31T11:55:36;100019.69;;;17.61;75.21
75026;BME280;63591;50.080;8.286;2022-10-31T11:58:03;100025.47;;;17.65;75.32
75026;BME280;63591;50.080;8.286;2022-10-31T12:00:33;100023.84;;;17.64;75.29
75026;BME280;63591;50.080;8.286;2022-10-31T12:03:36;100020.53;;;17.62;75.50
75026;BME280;63591;50.080;8.286;2022-10-31T12:06:13;100015.88;;;17.64;75.69
75026;BME280;63591;50.080;8.286;2022-10-31T12:08:43;100015.69;;;17.65;75.32
75026;BME280;63591;50.080;8.286;2022-10-31T12:16:39;99996.47;;;17.63;75.89
75026;BME280;63591;50.080;8.286;2022-10-31T12:19:17;99982.16;;;17.64;75.41
75026;BME280;63591;50.080;8.286;2022-10-31T12:22:02;99967.44;;;17.62;75.70
75026;BME280;63591;50.080;8.286;2022-10-31T12:27:08;99958.47;;;17.63;76.09
75026;BME280;63591;50.080;8.286;2022-10-31T12:32:36;99964.63;;;17.63;75.73
75026;BME280;63591;50.080;8.286;2022-10-31T12:38:28;99952.16;;;17.64;76.03
75026;BME280;63591;50.080;8.286;2022-10-31T12:41:44;99946.88;;;17.64;75.57
75026;BME280;63591;50.080;8.286;2022-10-31T12:44:21;99943.00;;;17.66;75.64
75026;BME280;63591;50.080;8.286;2022-10-31T12:49:46;99932.56;;;17.65;75.89
75026;BME280;63591;50.080;8.286;2022-10-31T12:52:23;99924.44;;;17.66;76.04
75026;BME280;63591;50.080;8.286;2022-10-31T12:57:45;99913.16;;;17.64;75.95
75026;BME280;63591;50.080;8.286;2022-10-31T13:00:16;99913.16;;;17.64;76.24
75026;BME280;63591;50.080;8.286;2022-10-31T13:02:52;99910.50;;;17.64;76.15
75026;BME280;63591;50.080;8.286;2022-10-31T13:08:20;99907.84;;;17.64;76.07
75026;BME280;63591;50.080;8.286;2022-10-31T13:10:58;99904.22;;;17.65;76.08
75026;BME280;63591;50.080;8.286;2022-10-31T13:13:35;99893.59;;;17.65;76.22
75026;BME280;63591;50.080;8.286;2022-10-31T13:16:04;99882.78;;;17.67;76.27
75026;BME280;63591;50.080;8.286;2022-10-31T13:18:39;99881.13;;;17.66;75.97
75026;BME280;63591;50.080;8.286;2022-10-31T13:21:11;99875.00;;;17.65;76.35
75026;BME280;63591;50.080;8.286;2022-10-31T13:23:39;99866.03;;;17.66;76.16
75026;BME280;63591;50.080;8.286;2022-10-31T13:26:42;99869.06;;;17.63;76.34
75026;BME280;63591;50.080;8.286;2022-10-31T13:31:57;99859.50;;;17.69;76.17
75026;BME280;63591;50.080;8.286;2022-10-31T13:34:27;99849.09;;;17.67;76.18
75026;BME280;63591;50.080;8.286;2022-10-31T13:42:15;99858.91;;;17.67;76.45
75026;BME280;63591;50.080;8.286;2022-10-31T13:44:44;99864.03;;;17.68;76.54
75026;BME280;63591;50.080;8.286;2022-10-31T13:47:26;99864.22;;;17.67;76.38
75026;BME280;63591;50.080;8.286;2022-10-31T13:55:45;99847.06;;;17.70;76.39
75026;BME280;63591;50.080;8.286;2022-10-31T13:58:26;99829.50;;;17.68;76.39
75026;BME280;63591;50.080;8.286;2022-10-31T14:03:27;99834.59;;;17.70;76.49
75026;BME280;63591;50.080;8.286;2022-10-31T14:05:55;99832.97;;;17.69;76.09
75026;BME280;63591;50.080;8.286;2022-10-31T14:08:22;99840.94;;;17.69;76.63
75026;BME280;63591;50.080;8.286;2022-10-31T14:10:51;99836.47;;;17.70;76.36
75026;BME280;63591;50.080;8.286;2022-10-31T14:13:21;99854.00;;;17.71;76.60
75026;BME280;63591;50.080;8.286;2022-10-31T14:15:56;99857.69;;;17.70;76.16
75026;BME280;63591;50.080;8.286;2022-10-31T14:18:29;99865.47;;;17.71;76.35
75026;BME280;63591;50.080;8.286;2022-10-31T14:20:56;99858.31;;;17.72;76.44
75026;BME280;63591;50.080;8.286;2022-10-31T14:26:18;99846.25;;;17.69;76.48
75026;BME280;63591;50.080;8.286;2022-10-31T14:28:44;99843.41;;;17.71;76.73
75026;BME280;63591;50.080;8.286;2022-10-31T14:33:54;99844.22;;;17.71;76.55
75026;BME280;63591;50.080;8.286;2022-10-31T14:36:43;99843.78;;;17.67;76.50
75026;BME280;63591;50.080;8.286;2022-10-31T14:39:23;99830.31;;;17.69;76.33
75026;BME280;63591;50.080;8.286;2022-10-31T14:41:58;99830.13;;;17.71;76.71
75026;BME280;63591;50.080;8.286;2022-10-31T14:44:52;99821.56;;;17.68;76.69
75026;BME280;63591;50.080;8.286;2022-10-31T14:47:36;99825.47;;;17.73;76.74
75026;BME280;63591;50.080;8.286;2022-10-31T14:50:09;99819.31;;;17.72;76.94
75026;BME280;63591;50.080;8.286;2022-10-31T14:52:37;99813.19;;;17.72;76.72
75026;BME280;63591;50.080;8.286;2022-10-31T14:55:07;99818.50;;;17.72;76.66
75026;BME280;63591;50.080;8.286;2022-10-31T14:57:36;99817.69;;;17.71;76.84
75026;BME280;63591;50.080;8.286;2022-10-31T15:00:12;99816.03;;;17.70;76.79
75026;BME280;63591;50.080;8.286;2022-10-31T15:03:31;99813.38;;;17.70;76.73
75026;BME280;63591;50.080;8.286;2022-10-31T15:05:34;99810.53;;;17.72;76.81
75026;BME280;63591;50.080;8.286;2022-10-31T15:08:13;99807.06;;;17.71;76.60
75026;BME280;63591;50.080;8.286;2022-10-31T15:10:50;99813.00;;;17.73;76.44
75026;BME280;63591;50.080;8.286;2022-10-31T15:13:20;99807.06;;;17.71;76.70
75026;BME280;63591;50.080;8.286;2022-10-31T15:15:54;99814.00;;;17.72;76.66
75026;BME280;63591;50.080;8.286;2022-10-31T15:18:24;99816.66;;;17.72;76.67
75026;BME280;63591;50.080;8.286;2022-10-31T15:20:50;99819.31;;;17.72;76.37
75026;BME280;63591;50.080;8.286;2022-10-31T15:23:25;99814.00;;;17.72;76.37
75026;BME280;63591;50.080;8.286;2022-10-31T15:26:03;99812.38;;;17.71;76.49
75026;BME280;63591;50.080;8.286;2022-10-31T15:28:29;99806.88;;;17.73;76.37
75026;BME280;63591;50.080;8.286;2022-10-31T15:30:59;99806.03;;;17.72;76.33
75026;BME280;63591;50.080;8.286;2022-10-31T15:33:31;99797.25;;;17.72;76.79
75026;BME280;63591;50.080;8.286;2022-10-31T15:35:58;99788.28;;;17.73;76.59
75026;BME280;63591;50.080;8.286;2022-10-31T15:38:25;99785.63;;;17.73;76.92
75026;BME280;63591;50.080;8.286;2022-10-31T15:41:02;99782.97;;;17.73;76.52
75026;BME280;63591;50.080;8.286;2022-10-31T15:43:34;99778.66;;;17.72;76.81
75026;BME280;63591;50.080;8.286;2022-10-31T15:46:01;99765.41;;;17.72;76.47
75026;BME280;63591;50.080;8.286;2022-10-31T15:48:27;99749.47;;;17.72;76.52
75026;BME280;63591;50.080;8.286;2022-10-31T15:50:55;99739.69;;;17.72;76.85
75026;BME280;63591;50.080;8.286;2022-10-31T15:53:26;99712.31;;;17.72;76.83
75026;BME280;63591;50.080;8.286;2022-10-31T15:55:55;99693.53;;;17.73;76.99
75026;BME280;63591;50.080;8.286;2022-10-31T15:58:21;99698.84;;;17.73;77.08
75026;BME280;63591;50.080;8.286;2022-10-31T16:00:58;99695.78;;;17.70;77.05
75026;BME280;63591;50.080;8.286;2022-10-31T16:03:29;99689.25;;;17.72;77.07
75026;BME280;63591;50.080;8.286;2022-10-31T16:06:03;99675.78;;;17.74;77.26
75026;BME280;63591;50.080;8.286;2022-10-31T16:10:55;99642.91;;;17.75;77.22
75026;BME280;63591;50.080;8.286;2022-10-31T16:13:28;99648.22;;;17.75;77.28
75026;BME280;63591;50.080;8.286;2022-10-31T16:15:59;99669.44;;;17.75;76.97
75026;BME280;63591;50.080;8.286;2022-10-31T16:18:26;99665.81;;;17.76;76.78
75026;BME280;63591;50.080;8.286;2022-10-31T16:20:55;99650.06;;;17.74;76.85
75026;BME280;63591;50.080;8.286;2022-10-31T16:23:23;99664.13;;;17.75;76.82
75026;BME280;63591;50.080;8.286;2022-10-31T16:25:50;99668.47;;;17.76;76.69
75026;BME280;63591;50.080;8.286;2022-10-31T16:28:22;99664.13;;;17.75;77.04
75026;BME280;63591;50.080;8.286;2022-10-31T16:30:49;99662.13;;;17.77;76.55
75026;BME280;63591;50.080;8.286;2022-10-31T16:35:48;99642.09;;;17.74;76.83
75026;BME280;63591;50.080;8.286;2022-10-31T16:38:13;99641.28;;;17.74;77.19
75026;BME280;63591;50.080;8.286;2022-10-31T16:40:39;99639.66;;;17.73;77.26
75026;BME280;63591;50.080;8.286;2022-10-31T16:43:04;99641.28;;;17.74;76.96
75026;BME280;63591;50.080;8.286;2022-10-31T16:45:31;99636.78;;;17.74;76.98
75026;BME280;63591;50.080;8.286;2022-10-31T16:48:09;99638.81;;;17.72;77.20
75026;BME280;63591;50.080;8.286;2022-10-31T16:50:37;99642.09;;;17.74;77.09
75026;BME280;63591;50.080;8.286;2022-10-31T16:53:02;99651.69;;;17.75;77.36
75026;BME280;63591;50.080;8.286;2022-10-31T16:55:28;99653.53;;;17.75;76.65
75026;BME280;63591;50.080;8.286;2022-10-31T16:57:55;99653.53;;;17.75;76.89
75026;BME280;63591;50.080;8.286;2022-10-31T17:00:22;99660.50;;;17.76;76.97
75026;BME280;63591;50.080;8.286;2022-10-31T17:02:50;99684.38;;;17.76;76.62
75026;BME280;63591;50.080;8.286;2022-10-31T17:05:18;99699.28;;;17.77;76.71
75026;BME280;63591;50.080;8.286;2022-10-31T17:07:44;99699.28;;;17.77;76.60
75026;BME280;63591;50.080;8.286;2022-10-31T17:10:11;99713.59;;;17.76;76.34
75026;BME280;63591;50.080;8.286;2022-10-31T17:12:37;99701.13;;;17.76;76.02
75026;BME280;63591;50.080;8.286;2022-10-31T17:15:05;99699.66;;;17.74;76.09
75026;BME280;63591;50.080;8.286;2022-10-31T17:17:31;99710.28;;;17.74;76.56
75026;BME280;63591;50.080;8.286;2022-10-31T17:19:56;99712.13;;;17.73;76.32
75026;BME280;63591;50.080;8.286;2022-10-31T17:22:22;99702.31;;;17.74;76.06
75026;BME280;63591;50.080;8.286;2022-10-31T17:24:47;99717.41;;;17.73;76.16
75026;BME280;63591;50.080;8.286;2022-10-31T17:27:12;99726.22;;;17.74;76.06
75026;BME280;63591;50.080;8.286;2022-10-31T17:29:38;99723.56;;;17.74;76.25
75026;BME280;63591;50.080;8.286;2022-10-31T17:32:03;99726.22;;;17.74;76.25
75026;BME280;63591;50.080;8.286;2022-10-31T17:34:29;99710.47;;;17.72;76.12
75026;BME280;63591;50.080;8.286;2022-10-31T17:36:55;99707.81;;;17.72;76.44
75026;BME280;63591;50.080;8.286;2022-10-31T17:39:20;99696.38;;;17.72;76.36
75026;BME280;63591;50.080;8.286;2022-10-31T17:41:49;99695.59;;;17.71;76.05
75026;BME280;63591;50.080;8.286;2022-10-31T17:44:14;99679.66;;;17.71;76.23
75026;BME280;63591;50.080;8.286;2022-10-31T17:46:40;99682.13;;;17.73;76.52
75026;BME280;63591;50.080;8.286;2022-10-31T17:49:05;99676.81;;;17.73;76.21
75026;BME280;63591;50.080;8.286;2022-10-31T17:51:33;99682.13;;;17.73;76.42
75026;BME280;63591;50.080;8.286;2022-10-31T17:53:58;99681.91;;;17.74;76.55
75026;BME280;63591;50.080;8.286;2022-10-31T17:56:24;99681.09;;;17.74;76.05
75026;BME280;63591;50.080;8.286;2022-10-31T17:58:49;99682.91;;;17.73;76.28
75026;BME280;63591;50.080;8.286;2022-10-31T18:01:16;99680.44;;;17.72;76.48
75026;BME280;63591;50.080;8.286;2022-10-31T18:03:42;99675.16;;;17.72;76.11
75026;BME280;63591;50.080;8.286;2022-10-31T18:06:09;99669.84;;;17.72;76.55
75026;BME280;63591;50.080;8.286;2022-10-31T18:08:38;99663.72;;;17.71;76.33
75026;BME280;63591;50.080;8.286;2022-10-31T18:11:06;99653.91;;;17.72;76.23
75026;BME280;63591;50.080;8.286;2022-10-31T18:13:33;99655.56;;;17.73;76.55
75026;BME280;63591;50.080;8.286;2022-10-31T18:15:59;99651.25;;;17.72;76.27
75026;BME280;63591;50.080;8.286;2022-10-31T18:18:24;99662.69;;;17.72;76.49
75026;BME280;63591;50.080;8.286;2022-10-31T18:20:49;99659.84;;;17.74;76.00
75026;BME280;63591;50.080;8.286;2022-10-31T18:23:15;99671.50;;;17.73;76.17
75026;BME280;63591;50.080;8.286;2022-10-31T18:25:40;99663.53;;;17.73;76.06
75026;BME280;63591;50.080;8.286;2022-10-31T18:28:08;99658.22;;;17.73;76.39
75026;BME280;63591;50.080;8.286;2022-10-31T18:30:37;99660.88;;;17.73;76.54
75026;BME280;63591;50.080;8.286;2022-10-31T18:33:03;99662.50;;;17.74;76.41
75026;BME280;63591;50.080;8.286;2022-10-31T18:35:28;99656.56;;;17.72;76.12
75026;BME280;63591;50.080;8.286;2022-10-31T18:37:53;99664.34;;;17.73;76.38
75026;BME280;63591;50.080;8.286;2022-10-31T18:40:19;99666.19;;;17.73;75.83
75026;BME280;63591;50.080;8.286;2022-10-31T18:42:44;99669.66;;;17.73;75.79
75026;BME280;63591;50.080;8.286;2022-10-31T18:45:09;99673.13;;;17.74;76.02
75026;BME280;63591;50.080;8.286;2022-10-31T18:47:35;99669.66;;;17.73;75.64
75026;BME280;63591;50.080;8.286;2022-10-31T18:50:00;99672.28;;;17.73;75.73
75026;BME280;63591;50.080;8.286;2022-10-31T18:52:25;99676.81;;;17.73;75.57
75026;BME280;63591;50.080;8.286;2022-10-31T18:54:51;99684.78;;;17.73;75.57
75026;BME280;63591;50.080;8.286;2022-10-31T18:57:16;99692.72;;;17.73;75.31
75026;BME280;63591;50.080;8.286;2022-10-31T18:59:41;99689.88;;;17.74;75.46
75026;BME280;63591;50.080;8.286;2022-10-31T19:02:09;99691.72;;;17.74;75.29
75026;BME280;63591;50.080;8.286;2022-10-31T19:04:36;99696.38;;;17.72;74.98
75026;BME280;63591;50.080;8.286;2022-10-31T19:07:01;99689.44;;;17.71;74.59
75026;BME280;63591;50.080;8.286;2022-10-31T19:09:26;99704.53;;;17.70;74.87
75026;BME280;63591;50.080;8.286;2022-10-31T19:11:54;99690.66;;;17.68;74.64
75026;BME280;63591;50.080;8.286;2022-10-31T19:14:20;99687.16;;;17.67;74.95
75026;BME280;63591;50.080;8.286;2022-10-31T19:16:45;99693.50;;;17.66;74.85
75026;BME280;63591;50.080;8.286;2022-10-31T19:19:10;99698.81;;;17.66;75.14
75026;BME280;63591;50.080;8.286;2022-10-31T19:21:36;99685.53;;;17.66;75.15
75026;BME280;63591;50.080;8.286;2022-10-31T19:24:01;99690.84;;;17.66;74.85
75026;BME280;63591;50.080;8.286;2022-10-31T19:26:26;99692.66;;;17.66;74.83
75026;BME280;63591;50.080;8.286;2022-10-31T19:28:54;99695.31;;;17.66;74.76
75026;BME280;63591;50.080;8.286;2022-10-31T19:31:19;99690.84;;;17.66;74.74
75026;BME280;63591;50.080;8.286;2022-10-31T19:33:45;99689.03;;;17.67;74.79
75026;BME280;63591;50.080;8.286;2022-10-31T19:36:15;99679.22;;;17.67;74.91
75026;BME280;63591;50.080;8.286;2022-10-31T19:38:43;99673.91;;;17.67;75.04
75026;BME280;63591;50.080;8.286;2022-10-31T19:41:16;99673.91;;;17.67;75.28
75026;BME280;63591;50.080;8.286;2022-10-31T19:43:42;99680.88;;;17.68;74.97
75026;BME280;63591;50.080;8.286;2022-10-31T19:46:09;99676.38;;;17.69;75.29
75026;BME280;63591;50.080;8.286;2022-10-31T19:48:37;99676.38;;;17.69;74.88
75026;BME280;63591;50.080;8.286;2022-10-31T19:51:11;99665.94;;;17.67;75.03
75026;BME280;63591;50.080;8.286;2022-10-31T19:53:37;99671.06;;;17.69;75.30
75026;BME280;63591;50.080;8.286;2022-10-31T19:56:03;99671.06;;;17.69;74.94
75026;BME280;63591;50.080;8.286;2022-10-31T19:58:31;99670.03;;;17.70;74.59
75026;BME280;63591;50.080;8.286;2022-10-31T20:00:56;99673.50;;;17.71;74.52
75026;BME280;63591;50.080;8.286;2022-10-31T20:03:22;99667.38;;;17.70;74.52
75026;BME280;63591;50.080;8.286;2022-10-31T20:05:48;99667.38;;;17.70;73.94
75026;BME280;63591;50.080;8.286;2022-10-31T20:08:17;99663.09;;;17.69;74.19
75026;BME280;63591;50.080;8.286;2022-10-31T20:10:56;99661.66;;;17.66;73.56
75026;BME280;63591;50.080;8.286;2022-10-31T20:13:23;99657.97;;;17.67;73.92
75026;BME280;63591;50.080;8.286;2022-10-31T20:15:49;99650.22;;;17.66;73.78
75026;BME280;63591;50.080;8.286;2022-10-31T20:18:15;99646.75;;;17.65;73.30
75026;BME280;63591;50.080;8.286;2022-10-31T20:20:40;99643.25;;;17.65;73.35
75026;BME280;63591;50.080;8.286;2022-10-31T20:23:05;99647.75;;;17.64;73.47
75026;BME280;63591;50.080;8.286;2022-10-31T20:25:30;99646.94;;;17.64;73.43
75026;BME280;63591;50.080;8.286;2022-10-31T20:27:57;99646.31;;;17.62;73.37
75026;BME280;63591;50.080;8.286;2022-10-31T20:30:23;99649.78;;;17.62;73.00
75026;BME280;63591;50.080;8.286;2022-10-31T20:32:48;99642.81;;;17.61;72.97
75026;BME280;63591;50.080;8.286;2022-10-31T20:35:13;99642.81;;;17.61;72.85
75026;BME280;63591;50.080;8.286;2022-10-31T20:37:39;99649.16;;;17.60;72.86
75026;BME280;63591;50.080;8.286;2022-10-31T20:40:05;99646.50;;;17.60;72.61
75026;BME280;63591;50.080;8.286;2022-10-31T20:42:30;99651.63;;;17.62;72.44
75026;BME280;63591;50.080;8.286;2022-10-31T20:44:55;99648.13;;;17.61;72.48
75026;BME280;63591;50.080;8.286;2022-10-31T20:47:21;99649.34;;;17.59;72.56
75026;BME280;63591;50.080;8.286;2022-10-31T20:49:46;99646.50;;;17.60;72.22
75026;BME280;63591;50.080;8.286;2022-10-31T20:52:11;99643.22;;;17.58;72.11
75026;BME280;63591;50.080;8.286;2022-10-31T20:54:36;99644.22;;;17.57;72.05
75026;BME280;63591;50.080;8.286;2022-10-31T20:57:02;99631.78;;;17.58;72.33
75026;BME280;63591;50.080;8.286;2022-10-31T20:59:27;99637.28;;;17.56;71.96
75026;BME280;63591;50.080;8.286;2022-10-31T21:01:52;99630.97;;;17.57;72.26
75026;BME280;63591;50.080;8.286;2022-10-31T21:04:18;99629.13;;;17.58;72.25
75026;BME280;63591;50.080;8.286;2022-10-31T21:06:43;99621.19;;;17.58;71.78
75026;BME280;63591;50.080;8.286;2022-10-31T21:09:08;99624.84;;;17.57;71.58
75026;BME280;63591;50.080;8.286;2022-10-31T21:11:34;99631.78;;;17.58;71.50
75026;BME280;63591;50.080;8.286;2022-10-31T21:13:59;99628.31;;;17.57;71.71
75026;BME280;63591;50.080;8.286;2022-10-31T21:16:30;99621.56;;;17.54;71.33
75026;BME280;63591;50.080;8.286;2022-10-31T21:18:59;99633.81;;;17.55;71.54
75026;BME280;63591;50.080;8.286;2022-10-31T21:21:26;99621.56;;;17.54;71.58
75026;BME280;63591;50.080;8.286;2022-10-31T21:24:12;99626.03;;;17.54;71.73
75026;BME280;63591;50.080;8.286;2022-10-31T21:26:40;99623.19;;;17.55;71.57
75026;BME280;63591;50.080;8.286;2022-10-31T21:29:07;99623.19;;;17.55;71.57
75026;BME280;63591;50.080;8.286;2022-10-31T21:31:34;99633.00;;;17.55;71.59
75026;BME280;63591;50.080;8.286;2022-10-31T21:34:00;99629.34;;;17.56;71.55
75026;BME280;63591;50.080;8.286;2022-10-31T21:36:26;99621.56;;;17.54;71.03
75026;BME280;63591;50.080;8.286;2022-10-31T21:38:52;99624.22;;;17.54;71.15
75026;BME280;63591;50.080;8.286;2022-10-31T21:41:19;99629.53;;;17.54;71.03
75026;BME280;63591;50.080;8.286;2022-10-31T21:43:46;99628.69;;;17.54;71.30
75026;BME280;63591;50.080;8.286;2022-10-31T21:46:15;99624.41;;;17.53;71.11
75026;BME280;63591;50.080;8.286;2022-10-31T21:48:41;99626.88;;;17.54;71.11
75026;BME280;63591;50.080;8.286;2022-10-31T21:51:13;99618.28;;;17.52;70.96
75026;BME280;63591;50.080;8.286;2022-10-31T21:53:39;99633.19;;;17.53;71.17
75026;BME280;63591;50.080;8.286;2022-10-31T21:56:23;99626.03;;;17.54;71.12
75026;BME280;63591;50.080;8.286;2022-10-31T21:58:50;99633.41;;;17.52;70.91
75026;BME280;63591;50.080;8.286;2022-10-31T22:01:15;99635.22;;;17.51;70.92
75026;BME280;63591;50.080;8.286;2022-10-31T22:03:41;99630.94;;;17.50;70.50
75026;BME280;63591;50.080;8.286;2022-10-31T22:06:08;99630.09;;;17.50;70.65
75026;BME280;63591;50.080;8.286;2022-10-31T22:08:34;99637.88;;;17.51;70.76
75026;BME280;63591;50.080;8.286;2022-10-31T22:11:05;99633.78;;;17.49;70.58
75026;BME280;63591;50.080;8.286;2022-10-31T22:13:32;99632.94;;;17.48;70.55
75026;BME280;63591;50.080;8.286;2022-10-31T22:16:12;99635.81;;;17.47;70.45
75026;BME280;63591;50.080;8.286;2022-10-31T22:18:39;99639.88;;;17.49;70.36
75026;BME280;63591;50.080;8.286;2022-10-31T22:21:17;99633.78;;;17.49;70.04
75026;BME280;63591;50.080;8.286;2022-10-31T22:23:43;99632.75;;;17.50;70.46
75026;BME280;63591;50.080;8.286;2022-10-31T22:26:14;99634.59;;;17.49;70.57
75026;BME280;63591;50.080;8.286;2022-10-31T22:28:47;99636.44;;;17.49;70.20
75026;BME280;63591;50.080;8.286;2022-10-31T22:31:15;99631.94;;;17.49;70.48
75026;BME280;63591;50.080;8.286;2022-10-31T22:33:41;99625.81;;;17.49;70.38
75026;BME280;63591;50.080;8.286;2022-10-31T22:36:09;99630.09;;;17.50;70.52
75026;BME280;63591;50.080;8.286;2022-10-31T22:38:36;99628.47;;;17.49;70.40
75026;BME280;63591;50.080;8.286;2022-10-31T22:41:09;99623.16;;;17.49;70.48
75026;BME280;63591;50.080;8.286;2022-10-31T22:43:35;99632.75;;;17.50;70.57
75026;BME280;63591;50.080;8.286;2022-10-31T22:46:02;99625.81;;;17.49;70.64
75026;BME280;63591;50.080;8.286;2022-10-31T22:48:33;99612.56;;;17.49;70.22
75026;BME280;63591;50.080;8.286;2022-10-31T22:51:09;99610.91;;;17.48;70.52
75026;BME280;63591;50.080;8.286;2022-10-31T22:53:36;99599.28;;;17.49;70.74
75026;BME280;63591;50.080;8.286;2022-10-31T22:56:02;99589.47;;;17.49;70.46
75026;BME280;63591;50.080;8.286;2022-10-31T22:58:28;99600.09;;;17.49;70.51
75026;BME280;63591;50.080;8.286;2022-10-31T23:00:54;99600.09;;;17.49;70.64
75026;BME280;63591;50.080;8.286;2022-10-31T23:03:20;99600.91;;;17.50;70.81
75026;BME280;63591;50.080;8.286;2022-10-31T23:06:12;99596.00;;;17.47;70.75
75026;BME280;63591;50.080;8.286;2022-10-31T23:08:38;99594.59;;;17.51;70.97
75026;BME280;63591;50.080;8.286;2022-10-31T23:11:31;99598.47;;;17.48;70.76
75026;BME280;63591;50.080;8.286;2022-10-31T23:13:58;99593.78;;;17.50;70.56
75026;BME280;63591;50.080;8.286;2022-10-31T23:16:33;99591.94;;;17.51;70.79
75026;BME280;63591;50.080;8.286;2022-10-31T23:18:59;99586.03;;;17.49;70.91
75026;BME280;63591;50.080;8.286;2022-10-31T23:21:26;99595.63;;;17.50;70.93
75026;BME280;63591;50.080;8.286;2022-10-31T23:24:11;99599.91;;;17.51;70.94
75026;BME280;63591;50.080;8.286;2022-10-31T23:26:39;99601.75;;;17.50;70.90
75026;BME280;63591;50.080;8.286;2022-10-31T23:29:23;99608.69;;;17.51;70.73
75026;BME280;63591;50.080;8.286;2022-10-31T23:31:49;99597.25;;;17.51;70.78
75026;BME280;63591;50.080;8.286;2022-10-31T23:34:14;99617.66;;;17.50;71.08
75026;BME280;63591;50.080;8.286;2022-10-31T23:36:40;99616.66;;;17.51;70.68
75026;BME280;63591;50.080;8.286;2022-10-31T23:39:05;99627.47;;;17.50;71.07
75026;BME280;63591;50.080;8.286;2022-10-31T23:41:30;99613.16;;;17.51;71.16
75026;BME280;63591;50.080;8.286;2022-10-31T23:43:56;99611.53;;;17.50;71.09
75026;BME280;63591;50.080;8.286;2022-10-31T23:46:21;99615.81;;;17.51;71.30
75026;BME280;63591;50.080;8.286;2022-10-31T23:48:46;99616.66;;;17.51;71.46
75026;BME280;63591;50.080;8.286;2022-10-31T23:51:13;99618.47;;;17.51;71.37
75026;BME280;63591;50.080;8.286;2022-10-31T23:53:39;99623.78;;;17.51;71.31
75026;BME280;63591;50.080;8.286;2022-10-31T23:56:04;99626.44;;;17.51;71.19
75026;BME280;63591;50.080;8.286;2022-10-31T23:58:30;99615.81;;;17.51;71.59
